Terminal Aerodrome Forecast
Issued by NWS Houston/Galveston TX

Home | Current Version | Previous Version | Text Only | Print | Product List | Glossary On
Versions: 1 2 3 4 5 6 7 8 9 10 11 12 13 14 15 16 17 18 19 20 21 22 23 24 25 26 27 28 29 30 31
000
FTUS44 KHGX 251123
TAFHOU
TAF
KHOU 251123Z 2512/2612 35011KT P6SM VCTS BKN025CB BKN110
      TEMPO 2512/2513 VRB15G25KT 5SM TSRA BR BKN015CB
     FM251400 04008KT P6SM VCTS BKN015 OVC025CB
     FM251800 06007KT P6SM VCSH BKN025
     FM260000 34005KT 6SM BR VCSH OVC010
     FM260600 01004KT 4SM BR VCSH OVC007=

USA.gov is the U.S. government's official web portal to all federal, state and local government web resources and services.